createdAt,value
2022-09-07T00:01:01.602Z,20.59
2022-09-07T00:03:28.515Z,20.52
2022-09-07T00:05:55.642Z,20.49
2022-09-07T00:08:24.551Z,20.39
2022-09-07T00:10:58.577Z,20.36
2022-09-07T00:13:27.718Z,20.27
2022-09-07T00:15:54.659Z,20.23
2022-09-07T00:18:21.398Z,20.18
2022-09-07T00:20:48.161Z,20.17
2022-09-07T00:23:14.950Z,20.12
2022-09-07T00:25:41.643Z,20.04
2022-09-07T00:28:08.755Z,19.91
2022-09-07T00:30:41.210Z,19.89
2022-09-07T00:33:08.036Z,19.79
2022-09-07T00:35:39.973Z,19.84
2022-09-07T00:38:06.926Z,19.83
2022-09-07T00:40:33.679Z,19.73
2022-09-07T00:43:00.706Z,19.76
2022-09-07T00:45:27.618Z,19.66
2022-09-07T00:48:05.268Z,19.55
2022-09-07T00:50:35.921Z,19.62
2022-09-07T00:53:07.707Z,19.64
2022-09-07T00:55:35.607Z,19.63
2022-09-07T00:58:02.524Z,19.63
2022-09-07T01:00:29.501Z,19.55
2022-09-07T01:02:57.752Z,19.51
2022-09-07T01:06:06.156Z,19.48
2022-09-07T01:08:33.444Z,19.41
2022-09-07T01:11:01.278Z,19.40
2022-09-07T01:13:29.703Z,19.34
2022-09-07T01:16:02.618Z,19.32
2022-09-07T01:18:47.212Z,19.24
2022-09-07T01:21:13.916Z,19.10
2022-09-07T01:23:56.316Z,19.12
2022-09-07T01:26:51.125Z,19.07
2022-09-07T01:29:46.785Z,19.05
2022-09-07T01:32:28.791Z,19.04
2022-09-07T01:34:55.634Z,19.00
2022-09-07T01:37:33.187Z,19.04
2022-09-07T01:40:14.246Z,18.87
2022-09-07T01:42:49.919Z,18.95
2022-09-07T01:45:18.816Z,18.96
2022-09-07T01:47:54.432Z,18.93
2022-09-07T01:50:28.964Z,18.93
2022-09-07T01:52:58.712Z,18.90
2022-09-07T01:55:43.565Z,18.83
2022-09-07T01:58:47.587Z,18.83
2022-09-07T02:01:21.209Z,18.76
2022-09-07T02:03:59.524Z,18.73
2022-09-07T02:06:48.936Z,18.68
2022-09-07T02:09:25.814Z,18.62
2022-09-07T02:11:53.615Z,18.57
2022-09-07T02:14:28.055Z,18.55
2022-09-07T02:17:12.474Z,18.49
2022-09-07T02:19:50.954Z,18.39
2022-09-07T02:22:23.441Z,18.32
2022-09-07T02:24:53.379Z,18.35
2022-09-07T02:27:25.639Z,18.28
2022-09-07T02:29:52.733Z,18.20
2022-09-07T02:32:19.490Z,18.29
2022-09-07T02:34:46.550Z,18.35
2022-09-07T02:37:14.072Z,18.26
2022-09-07T02:39:40.996Z,18.20
2022-09-07T02:42:07.854Z,18.23
2022-09-07T02:44:36.930Z,18.31
2022-09-07T02:47:14.759Z,18.31
2022-09-07T02:49:57.399Z,18.25
2022-09-07T02:52:30.377Z,18.18
2022-09-07T02:55:22.210Z,18.18
2022-09-07T02:58:03.932Z,18.15
2022-09-07T03:00:36.503Z,18.11
2022-09-07T03:03:06.236Z,18.06
2022-09-07T03:06:07.461Z,18.01
2022-09-07T03:08:40.735Z,17.99
2022-09-07T03:11:10.777Z,17.92
2022-09-07T03:13:37.507Z,17.89
2022-09-07T03:16:04.611Z,17.88
2022-09-07T03:18:31.424Z,17.73
2022-09-07T03:20:58.233Z,17.74
2022-09-07T03:23:25.091Z,17.76
2022-09-07T03:25:51.809Z,17.76
2022-09-07T03:28:18.572Z,17.76
2022-09-07T03:30:47.626Z,17.69
2022-09-07T03:33:17.963Z,17.59
2022-09-07T03:35:46.013Z,17.63
2022-09-07T03:38:12.971Z,17.63
2022-09-07T03:40:39.905Z,17.67
2022-09-07T03:43:06.637Z,17.66
2022-09-07T03:45:33.437Z,17.64
2022-09-07T03:48:00.173Z,17.61
2022-09-07T03:50:26.973Z,17.63
2022-09-07T03:52:53.703Z,17.61
2022-09-07T03:55:20.485Z,17.60
2022-09-07T03:57:47.241Z,17.63
2022-09-07T04:00:14.591Z,17.62
2022-09-07T04:02:41.486Z,17.57
2022-09-07T04:05:08.651Z,17.56
2022-09-07T04:07:35.526Z,17.59
2022-09-07T04:10:02.459Z,17.57
2022-09-07T04:12:29.205Z,17.60
2022-09-07T04:14:55.907Z,17.58
2022-09-07T04:17:23.448Z,17.55
2022-09-07T04:19:50.268Z,17.53
2022-09-07T04:22:17.106Z,17.43
2022-09-07T04:24:43.921Z,17.54
2022-09-07T04:27:10.710Z,17.56
2022-09-07T04:29:37.455Z,17.53
2022-09-07T04:32:04.162Z,17.58
2022-09-07T04:34:30.903Z,17.58
2022-09-07T04:36:57.669Z,17.52
2022-09-07T04:39:24.362Z,17.49
2022-09-07T04:41:51.093Z,17.53
2022-09-07T04:44:17.890Z,17.56
2022-09-07T04:46:44.702Z,17.52
2022-09-07T04:49:12.140Z,17.54
2022-09-07T04:51:39.619Z,17.47
2022-09-07T04:54:07.150Z,17.47
2022-09-07T04:56:34.187Z,17.50
2022-09-07T04:59:01.512Z,17.53
2022-09-07T05:01:28.546Z,17.50
2022-09-07T05:03:55.477Z,17.45
2022-09-07T05:06:23.456Z,17.51
2022-09-07T05:08:53.012Z,17.46
2022-09-07T05:11:24.959Z,17.52
2022-09-07T05:13:57.021Z,17.58
2022-09-07T05:16:25.009Z,17.48
2022-09-07T05:18:53.555Z,17.55
2022-09-07T05:21:22.799Z,17.40
2022-09-07T05:23:51.284Z,17.48
2022-09-07T05:26:18.825Z,17.46
2022-09-07T05:28:45.709Z,17.62
2022-09-07T05:31:19.555Z,17.55
2022-09-07T05:36:36.017Z,17.50
2022-09-07T05:39:03.423Z,17.59
2022-09-07T05:41:30.335Z,17.73
2022-09-07T05:46:44.104Z,17.77
2022-09-07T05:49:11.876Z,17.84
2022-09-07T05:51:38.992Z,17.82
2022-09-07T05:54:06.101Z,17.88
2022-09-07T05:56:36.391Z,17.68
2022-09-07T05:59:03.900Z,17.77
2022-09-07T06:01:30.996Z,17.89
2022-09-07T06:03:57.994Z,17.88
2022-09-07T06:06:24.828Z,17.59
2022-09-07T06:08:53.410Z,17.78
2022-09-07T06:11:22.324Z,17.78
2022-09-07T06:13:49.363Z,17.89
2022-09-07T06:16:17.066Z,18.09
2022-09-07T06:18:45.967Z,18.22
2022-09-07T06:21:15.358Z,18.27
2022-09-07T06:23:42.874Z,18.35
2022-09-07T06:26:11.244Z,18.37
2022-09-07T06:28:40.134Z,18.64
2022-09-07T06:31:09.074Z,18.63
2022-09-07T06:33:36.622Z,18.78
2022-09-07T06:36:09.802Z,18.91
2022-09-07T06:38:37.722Z,18.80
2022-09-07T06:44:05.255Z,18.72
2022-09-07T06:49:18.832Z,18.86
2022-09-07T06:51:45.553Z,18.88
2022-09-07T06:56:59.131Z,18.94
2022-09-07T06:59:25.850Z,18.80
2022-09-07T07:01:52.611Z,18.86
2022-09-07T07:04:19.421Z,18.76
2022-09-07T07:06:46.322Z,18.82
2022-09-07T07:09:14.216Z,19.01
2022-09-07T07:11:43.630Z,19.15
2022-09-07T07:14:17.661Z,19.20
2022-09-07T07:16:44.521Z,19.24
2022-09-07T07:19:11.465Z,19.46
2022-09-07T07:22:03.454Z,19.57
2022-09-07T07:24:25.119Z,19.51
2022-09-07T07:26:51.967Z,19.81
2022-09-07T07:29:18.984Z,20.08
2022-09-07T07:31:47.224Z,20.02
2022-09-07T07:34:14.598Z,20.13
2022-09-07T07:36:41.642Z,20.18
2022-09-07T07:41:58.861Z,20.67
2022-09-07T07:44:28.557Z,21.05
2022-09-07T07:46:55.323Z,21.35
2022-09-07T07:49:22.160Z,21.58
2022-09-07T07:54:38.464Z,22.51
2022-09-07T07:57:06.438Z,22.87
2022-09-07T07:59:33.471Z,23.10
2022-09-07T08:02:04.743Z,23.09
2022-09-07T08:04:35.693Z,23.53
2022-09-07T08:07:09.247Z,23.46
2022-09-07T08:09:37.406Z,23.74
2022-09-07T08:12:04.226Z,24.02
2022-09-07T08:14:31.298Z,24.36
2022-09-07T08:16:57.963Z,24.48
2022-09-07T08:19:24.683Z,24.59
2022-09-07T08:21:51.345Z,24.59
2022-09-07T08:24:18.240Z,24.89
2022-09-07T08:26:44.952Z,25.12
2022-09-07T08:29:11.694Z,25.12
2022-09-07T08:31:38.420Z,25.29
2022-09-07T08:34:05.158Z,25.15
2022-09-07T08:36:32.114Z,25.25
2022-09-07T08:38:58.784Z,25.22
2022-09-07T08:41:53.484Z,25.42
2022-09-07T08:44:51.158Z,25.56
2022-09-07T08:47:41.562Z,25.71
2022-09-07T08:50:12.052Z,25.89
2022-09-07T08:52:57.476Z,26.20
2022-09-07T08:55:31.631Z,26.22
2022-09-07T08:58:22.089Z,26.56
2022-09-07T09:06:54.122Z,27.01
2022-09-07T09:09:42.375Z,27.48
2022-09-07T09:12:13.152Z,27.73
2022-09-07T09:15:03.634Z,27.62
2022-09-07T09:18:01.171Z,27.71
2022-09-07T09:20:49.795Z,27.93
2022-09-07T09:23:18.960Z,27.75
2022-09-07T09:26:20.702Z,28.02
2022-09-07T09:28:47.375Z,28.10
2022-09-07T09:31:22.311Z,28.11
2022-09-07T09:34:07.188Z,28.24
2022-09-07T09:36:55.018Z,28.64
2022-09-07T09:39:45.168Z,28.70
2022-09-07T09:42:11.920Z,28.73
2022-09-07T09:44:38.971Z,28.88
2022-09-07T09:49:54.003Z,28.74
2022-09-07T09:52:32.009Z,28.41
2022-09-07T09:55:30.250Z,28.27
2022-09-07T10:03:59.397Z,28.21
2022-09-07T10:06:28.187Z,28.36
2022-09-07T10:09:00.462Z,28.47
2022-09-07T10:14:50.364Z,27.87
2022-09-07T10:17:23.794Z,27.94
2022-09-07T10:19:50.496Z,27.69
2022-09-07T10:22:22.964Z,27.46
2022-09-07T10:24:50.543Z,27.23
2022-09-07T10:27:35.970Z,26.84
2022-09-07T10:30:07.159Z,26.92
2022-09-07T10:33:14.703Z,26.52
2022-09-07T10:35:56.267Z,26.67
2022-09-07T10:38:25.084Z,26.63
2022-09-07T10:40:59.002Z,26.56
2022-09-07T10:43:25.601Z,26.49
2022-09-07T10:45:58.208Z,26.22
2022-09-07T10:49:02.792Z,26.28
2022-09-07T10:51:38.899Z,26.16
2022-09-07T10:54:36.697Z,26.02
2022-09-07T10:57:15.508Z,26.04
2022-09-07T11:00:14.061Z,26.04
2022-09-07T11:06:01.052Z,26.03
2022-09-07T11:12:07.914Z,26.27
2022-09-07T11:15:08.001Z,26.31
2022-09-07T11:17:43.790Z,26.44
2022-09-07T11:20:38.701Z,26.41
2022-09-07T11:23:14.411Z,26.31
2022-09-07T11:25:46.695Z,26.32
2022-09-07T11:28:13.578Z,26.25
2022-09-07T11:30:50.035Z,26.43
2022-09-07T11:33:21.207Z,26.42
2022-09-07T11:36:12.481Z,26.35
2022-09-07T11:38:43.038Z,26.15
2022-09-07T11:41:23.229Z,26.10
2022-09-07T11:44:02.535Z,26.14
2022-09-07T11:46:56.551Z,26.14
2022-09-07T11:49:26.746Z,26.17
2022-09-07T11:51:53.925Z,26.15
2022-09-07T11:54:49.028Z,26.12
2022-09-07T11:57:15.910Z,26.32
2022-09-07T11:59:54.646Z,26.37
2022-09-07T12:03:05.849Z,26.45
2022-09-07T12:06:15.412Z,26.42
2022-09-07T12:09:12.350Z,26.84
2022-09-07T12:11:57.774Z,27.29
2022-09-07T12:14:52.505Z,27.42
2022-09-07T12:17:45.424Z,27.51
2022-09-07T12:20:16.325Z,27.39
2022-09-07T12:23:05.577Z,27.22
2022-09-07T12:25:33.673Z,27.00
2022-09-07T12:28:00.952Z,26.87
2022-09-07T12:30:29.206Z,26.79
2022-09-07T12:32:58.098Z,26.70
2022-09-07T12:35:28.435Z,26.73
2022-09-07T12:37:58.199Z,26.38
2022-09-07T12:40:28.155Z,26.29
2022-09-07T12:43:13.244Z,26.36
2022-09-07T12:45:39.945Z,26.28
2022-09-07T12:48:34.582Z,26.21
2022-09-07T12:51:04.480Z,26.04
2022-09-07T12:53:42.276Z,26.18
2022-09-07T12:56:21.250Z,26.20
2022-09-07T12:59:25.993Z,26.42
2022-09-07T13:01:58.199Z,26.23
2022-09-07T13:04:50.290Z,26.18
2022-09-07T13:07:48.512Z,26.27
2022-09-07T13:10:35.166Z,26.25
2022-09-07T13:13:04.618Z,26.19
2022-09-07T13:15:45.324Z,26.33
2022-09-07T13:18:36.092Z,26.27
2022-09-07T13:21:08.790Z,26.41
2022-09-07T13:23:37.843Z,26.36
2022-09-07T13:26:07.855Z,26.23
2022-09-07T13:28:40.156Z,26.29
2022-09-07T13:31:07.129Z,26.38
2022-09-07T13:33:46.188Z,26.33
2022-09-07T13:36:45.209Z,26.46
2022-09-07T13:39:15.894Z,26.54
2022-09-07T13:41:55.831Z,26.52
2022-09-07T13:44:26.485Z,26.53
2022-09-07T13:47:03.405Z,26.73
2022-09-07T13:49:36.193Z,26.79
2022-09-07T13:52:09.182Z,26.79
2022-09-07T13:55:07.168Z,26.62
2022-09-07T13:58:14.146Z,26.50
2022-09-07T14:00:59.193Z,26.56
2022-09-07T14:03:28.423Z,26.61
2022-09-07T14:06:23.240Z,26.53
2022-09-07T14:08:52.133Z,26.66
2022-09-07T14:11:46.159Z,26.73
2022-09-07T14:14:24.223Z,26.73
2022-09-07T14:17:01.963Z,26.72
2022-09-07T14:19:39.907Z,26.79
2022-09-07T14:22:18.203Z,26.72
2022-09-07T14:24:53.712Z,26.78
2022-09-07T14:27:30.723Z,26.75
2022-09-07T14:30:28.515Z,26.55
2022-09-07T14:33:02.367Z,26.61
2022-09-07T14:35:33.632Z,26.72
2022-09-07T14:38:12.151Z,26.70
2022-09-07T14:40:39.164Z,26.66
2022-09-07T14:43:35.540Z,26.69
2022-09-07T14:46:36.258Z,26.77
2022-09-07T14:49:18.199Z,26.85
2022-09-07T14:51:45.800Z,26.71
2022-09-07T14:54:18.848Z,26.83
2022-09-07T14:57:09.961Z,26.75
2022-09-07T14:59:39.511Z,26.66
2022-09-07T15:02:18.317Z,26.66
2022-09-07T15:04:46.280Z,26.59
2022-09-07T15:07:49.656Z,26.46
2022-09-07T15:10:23.183Z,26.39
2022-09-07T15:12:54.110Z,26.39
2022-09-07T15:15:26.295Z,26.38
2022-09-07T15:18:05.828Z,26.35
2022-09-07T15:20:40.470Z,26.28
2022-09-07T15:23:15.944Z,26.36
2022-09-07T15:25:50.303Z,26.30
2022-09-07T15:34:20.444Z,26.18
2022-09-07T15:36:49.317Z,26.22
2022-09-07T15:39:25.003Z,26.16
2022-09-07T15:41:52.011Z,26.16
2022-09-07T15:44:24.417Z,26.10
2022-09-07T15:49:43.487Z,26.15
2022-09-07T15:52:13.381Z,26.11
2022-09-07T15:54:40.102Z,26.08
2022-09-07T15:59:53.705Z,26.07
2022-09-07T16:05:08.003Z,25.97
2022-09-07T16:10:21.561Z,25.99
2022-09-07T16:13:10.555Z,25.86
2022-09-07T16:15:35.358Z,25.88
2022-09-07T16:18:02.587Z,25.88
2022-09-07T16:20:31.926Z,25.84
2022-09-07T16:23:15.917Z,25.80
2022-09-07T16:25:55.143Z,25.82
2022-09-07T16:28:21.835Z,25.77
2022-09-07T16:30:48.727Z,25.81
2022-09-07T16:33:15.514Z,25.73
2022-09-07T16:35:42.227Z,25.66
2022-09-07T16:40:55.666Z,25.64
2022-09-07T16:43:22.435Z,25.60
2022-09-07T16:46:04.950Z,25.55
2022-09-07T16:48:36.191Z,25.55
2022-09-07T16:51:05.079Z,25.55
2022-09-07T16:53:34.467Z,25.56
2022-09-07T16:56:06.346Z,25.56
2022-09-07T16:58:35.751Z,25.50
2022-09-07T17:01:03.849Z,25.46
2022-09-07T17:03:30.598Z,25.46
2022-09-07T17:06:00.089Z,25.44
2022-09-07T17:08:27.304Z,25.32
2022-09-07T17:11:04.573Z,25.27
2022-09-07T17:13:32.816Z,25.24
2022-09-07T17:16:10.933Z,25.17
2022-09-07T17:21:28.178Z,25.11
2022-09-07T17:23:55.959Z,25.09
2022-09-07T17:26:26.479Z,25.03
2022-09-07T17:28:56.620Z,24.99
2022-09-07T17:34:15.163Z,24.85
2022-09-07T17:36:42.806Z,24.86
2022-09-07T17:39:18.592Z,24.81
2022-09-07T17:41:47.415Z,24.65
2022-09-07T17:44:14.416Z,24.66
2022-09-07T17:46:41.212Z,24.69
2022-09-07T17:49:16.815Z,24.75
2022-09-07T17:51:45.047Z,24.79
2022-09-07T17:54:14.578Z,24.74
2022-09-07T17:56:42.076Z,24.69
2022-09-07T18:01:56.728Z,24.45
2022-09-07T18:04:24.442Z,24.31
2022-09-07T18:06:51.560Z,24.33
2022-09-07T18:09:19.888Z,24.25
2022-09-07T18:11:48.629Z,24.25
2022-09-07T18:14:16.421Z,24.26
2022-09-07T18:16:44.198Z,24.20
2022-09-07T18:19:11.957Z,24.18
2022-09-07T18:21:41.196Z,24.11
2022-09-07T18:24:13.592Z,24.09
2022-09-07T18:26:41.042Z,24.02
2022-09-07T18:29:25.878Z,23.97
2022-09-07T18:31:55.033Z,23.93
2022-09-07T18:34:21.941Z,23.86
2022-09-07T18:36:48.880Z,23.83
2022-09-07T18:39:15.800Z,23.78
2022-09-07T18:41:42.569Z,23.74
2022-09-07T18:46:56.422Z,23.60
2022-09-07T18:49:23.540Z,23.56
2022-09-07T18:54:38.228Z,23.48
2022-09-07T18:57:06.750Z,23.42
2022-09-07T18:59:34.012Z,23.37
2022-09-07T19:02:04.355Z,23.31
2022-09-07T19:07:20.872Z,23.25
2022-09-07T19:09:48.943Z,23.20
2022-09-07T19:12:15.728Z,23.19
2022-09-07T19:14:42.557Z,23.16
2022-09-07T19:17:11.079Z,23.13
2022-09-07T19:19:38.911Z,23.09
2022-09-07T19:22:06.206Z,23.00
2022-09-07T19:24:33.428Z,22.95
2022-09-07T19:27:01.255Z,22.90
2022-09-07T19:29:30.715Z,22.84
2022-09-07T19:32:07.887Z,22.80
2022-09-07T19:34:36.760Z,22.75
2022-09-07T19:37:08.611Z,22.73
2022-09-07T19:39:35.421Z,22.68
2022-09-07T19:42:03.355Z,22.66
2022-09-07T19:44:30.103Z,22.60
2022-09-07T19:46:56.831Z,22.58
2022-09-07T19:49:23.659Z,22.53
2022-09-07T19:51:52.144Z,22.50
2022-09-07T19:54:19.086Z,22.48
2022-09-07T19:56:45.886Z,22.47
2022-09-07T19:59:12.684Z,22.44
2022-09-07T20:01:40.770Z,22.41
2022-09-07T20:04:13.822Z,22.30
2022-09-07T20:06:43.770Z,22.34
2022-09-07T20:09:10.678Z,22.39
2022-09-07T20:11:37.362Z,22.37
2022-09-07T20:14:04.255Z,22.36
2022-09-07T20:16:31.522Z,22.37
2022-09-07T20:18:59.376Z,22.33
2022-09-07T20:21:26.406Z,22.29
2022-09-07T20:23:53.052Z,22.17
2022-09-07T20:26:21.444Z,22.12
2022-09-07T20:29:05.918Z,22.10
2022-09-07T20:31:40.900Z,22.18
2022-09-07T20:34:09.291Z,22.18
2022-09-07T20:36:36.164Z,22.18
2022-09-07T20:39:03.108Z,22.13
2022-09-07T20:41:32.574Z,22.12
2022-09-07T20:44:00.844Z,22.10
2022-09-07T20:46:29.088Z,22.11
2022-09-07T20:48:56.152Z,22.09
2022-09-07T20:51:23.586Z,21.99
2022-09-07T20:53:50.569Z,21.99
2022-09-07T20:56:22.610Z,22.02
2022-09-07T20:58:54.290Z,21.99
2022-09-07T21:01:21.549Z,21.96
2022-09-07T21:03:53.088Z,21.96
2022-09-07T21:06:20.860Z,21.92
2022-09-07T21:08:48.530Z,21.91
2022-09-07T21:11:17.780Z,21.90
2022-09-07T21:13:44.651Z,21.87
2022-09-07T21:16:13.505Z,21.87
2022-09-07T21:18:41.442Z,21.84
2022-09-07T21:21:23.670Z,21.70
2022-09-07T21:23:55.857Z,21.65
2022-09-07T21:26:22.967Z,21.71
2022-09-07T21:28:55.168Z,21.59
2022-09-07T21:31:30.982Z,21.72
2022-09-07T21:34:02.390Z,21.64
2022-09-07T21:36:29.531Z,21.69
2022-09-07T21:38:56.381Z,21.77
2022-09-07T21:41:24.678Z,21.82
2022-09-07T21:43:55.900Z,21.80
2022-09-07T21:46:23.146Z,21.84
2022-09-07T21:48:49.966Z,21.87
2022-09-07T21:51:16.943Z,21.77
2022-09-07T21:53:43.789Z,21.87
2022-09-07T21:56:12.921Z,21.84
2022-09-07T21:58:43.844Z,21.77
2022-09-07T22:01:12.996Z,21.85
2022-09-07T22:03:40.686Z,21.79
2022-09-07T22:06:08.363Z,21.85
2022-09-07T22:08:36.121Z,21.77
2022-09-07T22:11:08.270Z,21.83
2022-09-07T22:13:35.362Z,21.88
2022-09-07T22:16:02.901Z,21.87
2022-09-07T22:18:30.500Z,21.83
2022-09-07T22:21:03.663Z,21.83
2022-09-07T22:23:32.152Z,21.78
2022-09-07T22:25:59.129Z,21.70
2022-09-07T22:28:25.943Z,21.68
2022-09-07T22:30:54.864Z,21.58
2022-09-07T22:33:21.771Z,21.63
2022-09-07T22:35:48.913Z,21.62
2022-09-07T22:38:15.566Z,21.57
2022-09-07T22:40:42.348Z,21.53
2022-09-07T22:43:09.071Z,21.58
2022-09-07T22:45:35.868Z,21.51
2022-09-07T22:48:03.065Z,21.45
2022-09-07T22:50:29.710Z,21.44
2022-09-07T22:52:56.543Z,21.36
2022-09-07T22:55:23.271Z,21.24
2022-09-07T22:57:53.489Z,21.25
2022-09-07T23:00:20.309Z,21.40
2022-09-07T23:02:47.292Z,21.39
2022-09-07T23:05:14.077Z,21.49
2022-09-07T23:07:40.820Z,21.48
2022-09-07T23:10:07.968Z,21.41
2022-09-07T23:12:34.715Z,21.42
2022-09-07T23:15:01.487Z,21.25
2022-09-07T23:17:28.162Z,21.08
2022-09-07T23:19:54.921Z,21.18
2022-09-07T23:22:21.864Z,21.29
2022-09-07T23:24:48.535Z,21.33
2022-09-07T23:27:15.198Z,21.39
2022-09-07T23:29:41.873Z,21.32
2022-09-07T23:32:08.523Z,21.29
2022-09-07T23:34:35.242Z,21.26
2022-09-07T23:37:01.884Z,21.26
2022-09-07T23:39:28.587Z,21.26
2022-09-07T23:41:55.515Z,21.26
2022-09-07T23:44:22.255Z,21.29
2022-09-07T23:46:51.659Z,21.23
2022-09-07T23:49:18.358Z,21.23
2022-09-07T23:51:45.073Z,21.26
2022-09-07T23:54:12.107Z,21.20
2022-09-07T23:56:39.236Z,21.16
2022-09-07T23:59:06.430Z,21.13
